createdAt,value
2023-05-13T00:06:47.466Z,6.78
2023-05-13T00:15:11.085Z,6.64
2023-05-13T00:23:33.990Z,6.50
2023-05-13T00:31:57.075Z,6.40
2023-05-13T00:40:24.706Z,6.38
2023-05-13T00:48:47.812Z,6.39
2023-05-13T00:57:10.646Z,6.40
2023-05-13T01:06:02.649Z,6.35
2023-05-13T01:14:32.945Z,6.27
2023-05-13T01:22:57.084Z,6.14
2023-05-13T01:31:22.270Z,6.04
2023-05-13T01:39:46.890Z,6.05
2023-05-13T01:48:10.653Z,6.07
2023-05-13T01:56:39.846Z,5.96
2023-05-13T02:05:02.954Z,5.77
2023-05-13T02:13:26.907Z,5.64
2023-05-13T02:21:49.758Z,5.60
2023-05-13T02:30:13.184Z,5.63
2023-05-13T02:38:36.261Z,5.52
2023-05-13T02:46:59.776Z,5.28
2023-05-13T02:55:23.397Z,5.09
2023-05-13T03:03:46.576Z,4.96
2023-05-13T03:12:10.111Z,4.97
2023-05-13T03:20:33.227Z,4.98
2023-05-13T03:28:57.598Z,4.93
2023-05-13T03:37:20.950Z,4.91
2023-05-13T03:45:47.727Z,5.52
2023-05-13T03:54:13.041Z,7.58
2023-05-13T04:02:36.471Z,8.76
2023-05-13T04:10:59.689Z,9.17
2023-05-13T04:19:22.529Z,9.06
2023-05-13T04:27:47.608Z,8.83
2023-05-13T04:36:20.876Z,8.83
2023-05-13T04:44:43.981Z,9.48
2023-05-13T04:53:07.405Z,10.19
2023-05-13T05:01:30.593Z,11.01
2023-05-13T05:09:53.883Z,11.79
2023-05-13T05:18:17.459Z,12.74
2023-05-13T05:26:43.814Z,13.70
2023-05-13T05:35:07.948Z,14.43
2023-05-13T05:43:31.272Z,14.86
2023-05-13T05:51:54.277Z,15.70
2023-05-13T06:00:19.036Z,16.59
2023-05-13T06:08:41.926Z,17.44
2023-05-13T06:17:05.002Z,17.90
2023-05-13T06:25:28.086Z,18.31
2023-05-13T06:33:51.041Z,18.86
2023-05-13T06:42:14.458Z,19.33
2023-05-13T06:50:42.221Z,19.55
2023-05-13T06:59:05.140Z,19.83
2023-05-13T07:07:28.044Z,19.96
2023-05-13T07:15:50.993Z,20.03
2023-05-13T07:24:14.765Z,20.15
2023-05-13T07:32:38.625Z,20.28
2023-05-13T07:41:01.741Z,20.46
2023-05-13T07:49:24.620Z,20.70
2023-05-13T07:57:47.567Z,20.91
2023-05-13T08:06:11.405Z,21.15
2023-05-13T08:14:34.727Z,21.33
2023-05-13T08:22:58.705Z,21.50
2023-05-13T08:31:21.777Z,21.76
2023-05-13T08:39:45.429Z,21.93
2023-05-13T08:48:10.070Z,22.14
2023-05-13T08:56:33.226Z,22.39
2023-05-13T09:05:00.296Z,22.45
2023-05-13T09:13:23.367Z,22.58
2023-05-13T09:21:46.358Z,22.18
2023-05-13T09:30:11.070Z,21.83
2023-05-13T09:38:39.181Z,21.90
2023-05-13T09:47:02.970Z,21.76
2023-05-13T09:55:26.117Z,21.69
2023-05-13T10:03:49.088Z,21.77
2023-05-13T10:12:14.977Z,21.99
2023-05-13T10:20:39.169Z,22.32
2023-05-13T10:29:02.570Z,22.95
2023-05-13T10:37:44.573Z,22.63
2023-05-13T10:46:11.500Z,21.40
2023-05-13T10:54:42.320Z,20.99
2023-05-13T11:03:16.002Z,21.11
2023-05-13T11:11:39.751Z,20.95
2023-05-13T11:20:02.601Z,21.17
2023-05-13T11:29:05.198Z,21.72
2023-05-13T11:37:30.911Z,21.80
2023-05-13T11:45:55.525Z,21.97
2023-05-13T11:54:18.724Z,21.47
2023-05-13T12:02:41.728Z,21.00
2023-05-13T12:11:06.291Z,21.38
2023-05-13T12:19:29.274Z,21.48
2023-05-13T12:27:53.113Z,20.98
2023-05-13T12:36:25.584Z,20.92
2023-05-13T12:44:48.786Z,21.59
2023-05-13T12:53:11.688Z,21.54
2023-05-13T13:01:35.535Z,21.51
2023-05-13T13:09:58.438Z,21.22
2023-05-13T13:18:21.573Z,20.79
2023-05-13T13:26:44.445Z,21.10
2023-05-13T13:35:07.578Z,21.09
2023-05-13T13:43:30.441Z,21.20
2023-05-13T13:51:53.473Z,21.44
2023-05-13T14:00:16.919Z,21.78
2023-05-13T14:08:39.740Z,21.94
2023-05-13T14:17:02.605Z,21.65
2023-05-13T14:25:25.589Z,20.91
2023-05-13T14:33:48.489Z,20.66
2023-05-13T14:42:11.868Z,20.98
2023-05-13T14:50:36.050Z,21.29
2023-05-13T14:58:59.193Z,21.48
2023-05-13T15:07:22.171Z,21.47
2023-05-13T15:15:45.668Z,21.57
2023-05-13T15:24:08.653Z,21.61
2023-05-13T15:32:31.735Z,21.53
2023-05-13T15:40:55.097Z,21.54
2023-05-13T15:49:18.070Z,21.50
2023-05-13T15:57:41.225Z,21.54
2023-05-13T16:06:04.182Z,21.33
2023-05-13T16:14:27.131Z,20.43
2023-05-13T16:22:49.965Z,19.70
2023-05-13T16:31:12.857Z,19.15
2023-05-13T16:39:36.436Z,18.97
2023-05-13T16:47:59.340Z,18.88
2023-05-13T16:56:22.475Z,18.77
2023-05-13T17:04:45.462Z,18.64
2023-05-13T17:13:08.413Z,18.46
2023-05-13T17:21:31.282Z,18.20
2023-05-13T17:29:54.332Z,17.83
2023-05-13T17:38:17.247Z,17.41
2023-05-13T17:46:40.137Z,17.02
2023-05-13T17:55:02.962Z,16.64
2023-05-13T18:03:25.895Z,16.26
2023-05-13T18:11:48.796Z,15.81
2023-05-13T18:20:12.709Z,15.29
2023-05-13T18:28:35.719Z,14.81
2023-05-13T18:36:58.597Z,14.35
2023-05-13T18:45:21.919Z,13.98
2023-05-13T18:53:45.863Z,13.60
2023-05-13T19:02:08.972Z,13.23
2023-05-13T19:10:38.994Z,12.84
2023-05-13T19:19:02.904Z,12.29
2023-05-13T19:27:26.292Z,11.93
2023-05-13T19:35:49.781Z,11.69
2023-05-13T19:44:12.799Z,11.45
2023-05-13T19:52:36.313Z,11.20
2023-05-13T20:00:59.239Z,10.95
2023-05-13T20:09:22.297Z,10.69
2023-05-13T20:17:45.629Z,10.44
2023-05-13T20:26:08.980Z,10.19
2023-05-13T20:34:33.209Z,9.96
2023-05-13T20:42:56.037Z,9.71
2023-05-13T20:51:19.128Z,9.42
2023-05-13T20:59:42.154Z,9.10
2023-05-13T21:08:05.060Z,8.85
2023-05-13T21:16:28.605Z,8.80
2023-05-13T21:24:51.759Z,8.80
2023-05-13T21:33:14.650Z,8.81
2023-05-13T21:41:37.921Z,8.68
2023-05-13T21:50:00.910Z,8.51
2023-05-13T21:58:23.802Z,8.34
2023-05-13T22:06:46.791Z,8.13
2023-05-13T22:15:10.675Z,8.00
2023-05-13T22:23:34.517Z,7.93
2023-05-13T22:31:57.659Z,7.88
2023-05-13T22:40:20.828Z,7.75
2023-05-13T22:48:44.039Z,7.58
2023-05-13T22:57:06.952Z,7.44
2023-05-13T23:05:29.755Z,7.43
2023-05-13T23:13:52.652Z,7.37
2023-05-13T23:22:16.119Z,7.22
2023-05-13T23:30:39.753Z,7.07
2023-05-13T23:39:02.984Z,7.02
2023-05-13T23:47:25.927Z,6.99
2023-05-13T23:55:49.001Z,6.90
